Time;durP1;ratioP1;P1;durP2;ratioP2;P2;SDS_P1;SDS_P2;PMS_P1;PMS_P2;Temp;Humidity;BMP_temperature;BMP_pressure;BME280_temperature;BME280_humidity;BME280_pressure;Samples;Min_cycle;Max_cycle;Signal;HPM_P1;HPM_P2
2021/07/13 00:00:11;;;;;;;6.33;5.20;;;;;;;19.17;79.09;100221.09;695182;28;4411;-51
2021/07/13 00:00:38;;;;;;;5.97;5.32;;;;;;;19.20;78.69;100215.63;694964;28;1439;-52
2021/07/13 00:00:59;;;;;;;5.95;5.03;;;;;;;19.22;78.47;100212.00;695683;28;4251;-58
2021/07/13 00:01:19;;;;;;;6.50;5.00;;;;;;;19.27;78.31;100218.84;695842;28;4523;-52
2021/07/13 00:01:39;;;;;;;6.60;5.22;;;;;;;19.28;78.19;100213.47;694667;28;1706;-54
2021/07/13 00:02:00;;;;;;;5.70;4.83;;;;;;;19.32;78.22;100217.69;695344;28;2191;-51
2021/07/13 00:02:21;;;;;;;6.03;4.85;;;;;;;19.33;77.95;100215.94;695366;28;1637;-55
2021/07/13 00:02:41;;;;;;;6.43;5.00;;;;;;;19.34;77.91;100213.19;694607;28;1469;-56
2021/07/13 00:03:04;;;;;;;6.07;5.10;;;;;;;19.36;77.90;100221.06;694161;28;4320;-56
2021/07/13 00:03:24;;;;;;;6.10;5.30;;;;;;;19.39;77.90;100218.25;695388;28;1656;-51
2021/07/13 00:03:44;;;;;;;6.72;5.22;;;;;;;19.40;77.71;100212.88;695703;28;1546;-51
2021/07/13 00:04:09;;;;;;;6.37;5.20;;;;;;;19.43;77.63;100221.63;695508;28;1291;-53
2021/07/13 00:04:29;;;;;;;6.00;5.05;;;;;;;19.43;77.53;100219.84;695428;28;966;-54
2021/07/13 00:04:50;;;;;;;6.07;5.20;;;;;;;19.45;77.53;100225.06;695202;28;1465;-53
2021/07/13 00:05:15;;;;;;;5.57;4.90;;;;;;;19.45;77.54;100220.59;695785;28;1207;-53
2021/07/13 00:05:37;;;;;;;6.18;4.85;;;;;;;19.46;77.39;100218.84;694958;28;4226;-52
2021/07/13 00:05:58;;;;;;;6.53;5.10;;;;;;;19.46;78.29;100222.31;693952;28;4453;-53
2021/07/13 00:06:18;;;;;;;6.55;5.10;;;;;;;19.45;78.43;100222.41;694587;28;1803;-51
2021/07/13 00:06:39;;;;;;;7.40;5.33;;;;;;;19.40;79.56;100223.50;695672;28;1736;-53
2021/07/13 00:06:59;;;;;;;6.15;5.18;;;;;;;19.35;79.35;100227.28;695225;28;1967;-53
2021/07/13 00:07:20;;;;;;;7.77;5.20;;;;;;;19.30;80.08;100222.22;694660;28;1772;-52
2021/07/13 00:07:41;;;;;;;8.73;5.20;;;;;;;19.27;80.20;100222.34;695465;28;1360;-53
2021/07/13 00:08:02;;;;;;;6.30;5.38;;;;;;;19.24;80.10;100233.09;694372;28;1868;-51
2021/07/13 00:08:23;;;;;;;5.82;5.22;;;;;;;19.26;79.56;100235.69;695853;28;1297;-52
2021/07/13 00:08:43;;;;;;;6.50;5.50;;;;;;;19.23;80.06;100228.72;695354;28;1181;-51
2021/07/13 00:09:06;;;;;;;5.97;5.33;;;;;;;19.23;79.43;100228.72;693726;28;4634;-51
2021/07/13 00:09:27;;;;;;;6.30;5.35;;;;;;;19.23;79.09;100226.97;695668;28;1222;-54
2021/07/13 00:09:48;;;;;;;6.85;5.20;;;;;;;19.24;79.05;100222.50;695593;28;1088;-54
2021/07/13 00:10:09;;;;;;;6.30;5.20;;;;;;;19.26;79.09;100227.72;695530;28;4246;-52
2021/07/13 00:10:31;;;;;;;6.55;5.32;;;;;;;19.23;79.30;100232.25;695767;28;1703;-52
2021/07/13 00:10:52;;;;;;;6.25;5.32;;;;;;;19.22;79.82;100232.34;695327;28;2082;-55
2021/07/13 00:11:13;;;;;;;7.47;5.63;;;;;;;19.21;79.60;100230.63;695326;28;1481;-56
2021/07/13 00:11:33;;;;;;;6.50;5.40;;;;;;;19.23;78.80;100226.09;694607;28;1089;-52
2021/07/13 00:11:59;;;;;;;6.27;5.10;;;;;;;19.23;79.54;100234.91;694678;28;4655;-55
2021/07/13 00:12:19;;;;;;;6.22;5.63;;;;;;;19.20;80.44;100226.22;695014;28;1692;-56
2021/07/13 00:12:40;;;;;;;6.18;5.57;;;;;;;19.20;79.69;100227.13;695752;28;1512;-52
2021/07/13 00:13:01;;;;;;;6.32;5.55;;;;;;;19.18;81.24;100230.75;694457;28;2044;-53
2021/07/13 00:13:21;;;;;;;7.23;5.80;;;;;;;19.15;81.27;100228.25;694060;28;1917;-53
2021/07/13 00:13:41;;;;;;;6.70;5.53;;;;;;;19.12;81.25;100229.28;695510;28;1507;-52
2021/07/13 00:14:04;;;;;;;5.90;5.20;;;;;;;19.12;80.22;100228.38;695420;28;1442;-56
2021/07/13 00:14:26;;;;;;;6.50;5.45;;;;;;;19.11;81.42;100232.00;691497;28;1534;-57
2021/07/13 00:14:46;;;;;;;6.53;5.85;;;;;;;19.11;81.44;100227.53;691518;28;1684;-52
2021/07/13 00:15:15;;;;;;;6.80;5.80;;;;;;;19.08;81.45;100224.16;691005;28;4328;-52
2021/07/13 00:15:38;;;;;;;6.50;5.90;;;;;;;19.07;81.70;100227.78;694171;28;1712;-52
2021/07/13 00:15:58;;;;;;;6.55;5.57;;;;;;;19.07;80.78;100233.06;694857;28;1740;-54
2021/07/13 00:16:19;;;;;;;6.50;5.40;;;;;;;19.04;81.74;100234.91;695946;28;1413;-54
2021/07/13 00:16:39;;;;;;;7.17;5.67;;;;;;;19.01;81.47;100221.81;694861;28;1401;-54
2021/07/13 00:17:00;;;;;;;6.97;5.53;;;;;;;19.03;81.30;100233.19;694210;28;3324;-55
2021/07/13 00:17:20;;;;;;;6.20;5.28;;;;;;;19.04;80.87;100234.06;695167;28;3580;-54
2021/07/13 00:17:43;;;;;;;6.47;5.80;;;;;;;19.03;82.11;100229.69;695168;28;4570;-53
2021/07/13 00:18:05;;;;;;;7.07;5.80;;;;;;;18.97;82.31;100236.13;694312;28;5456;-55
2021/07/13 00:18:25;;;;;;;7.25;5.93;;;;;;;18.94;82.30;100235.41;695622;28;1529;-54
2021/07/13 00:18:46;;;;;;;6.67;5.70;;;;;;;18.95;81.31;100227.38;695823;28;1966;-55
2021/07/13 00:19:06;;;;;;;7.22;5.80;;;;;;;18.97;81.18;100227.31;694994;28;1604;-54
2021/07/13 00:19:27;;;;;;;7.50;5.80;;;;;;;18.98;81.89;100231.69;695885;28;1575;-57
2021/07/13 00:19:47;;;;;;;6.93;5.70;;;;;;;18.97;81.29;100229.97;695874;28;1495;-55
2021/07/13 00:20:08;;;;;;;6.30;5.70;;;;;;;18.97;81.27;100236.13;696146;28;1354;-53
2021/07/13 00:20:29;;;;;;;6.25;5.65;;;;;;;18.99;81.19;100234.25;696117;28;1702;-54
2021/07/13 00:20:49;;;;;;;7.27;5.50;;;;;;;18.97;81.84;100233.50;697446;28;4312;-55
2021/07/13 00:21:10;;;;;;;7.88;5.78;;;;;;;18.95;83.01;100237.97;698330;28;1477;-52
2021/07/13 00:21:31;;;;;;;6.27;5.53;;;;;;;18.90;83.42;100234.72;694676;28;1530;-53
2021/07/13 00:21:54;;;;;;;6.57;5.80;;;;;;;18.88;83.04;100231.25;694282;28;4421;-56
2021/07/13 00:22:14;;;;;;;7.30;6.07;;;;;;;18.88;82.21;100239.19;694747;28;1960;-54
2021/07/13 00:22:35;;;;;;;7.68;6.10;;;;;;;18.88;82.59;100236.56;694228;28;1866;-54
2021/07/13 00:22:56;;;;;;;7.23;5.87;;;;;;;18.87;82.44;100237.44;695273;28;1942;-53
2021/07/13 00:23:16;;;;;;;6.32;5.68;;;;;;;18.87;81.85;100232.16;695497;28;1516;-55
2021/07/13 00:23:37;;;;;;;6.30;5.50;;;;;;;18.89;82.30;100238.28;695326;28;1998;-52
2021/07/13 00:23:57;;;;;;;6.22;5.60;;;;;;;18.90;81.84;100234.72;694813;28;4430;-55
2021/07/13 00:24:18;;;;;;;7.13;5.10;;;;;;;18.95;80.92;100239.78;695485;28;1939;-55
2021/07/13 00:24:38;;;;;;;7.20;5.37;;;;;;;18.94;82.17;100233.63;695730;28;1101;-54
2021/07/13 00:24:59;;;;;;;6.70;5.93;;;;;;;18.90;82.67;100234.72;695698;28;1793;-51
2021/07/13 00:25:19;;;;;;;7.33;6.20;;;;;;;18.85;82.93;100234.88;695024;28;1469;-55
2021/07/13 00:25:40;;;;;;;7.10;6.05;;;;;;;18.82;82.91;100242.13;695351;28;1079;-54
2021/07/13 00:26:00;;;;;;;7.03;5.97;;;;;;;18.79;83.07;100237.81;695540;28;1827;-53
2021/07/13 00:26:21;;;;;;;6.65;6.05;;;;;;;18.78;83.39;100238.72;695394;28;4442;-53
2021/07/13 00:26:42;;;;;;;6.22;5.63;;;;;;;18.77;83.54;100237.00;695276;28;1786;-53
2021/07/13 00:27:03;;;;;;;6.63;5.90;;;;;;;18.77;82.87;100236.16;693206;28;4388;-54
2021/07/13 00:27:23;;;;;;;6.82;6.03;;;;;;;18.78;82.47;100237.88;695746;28;1690;-56
2021/07/13 00:27:44;;;;;;;7.00;5.83;;;;;;;18.80;82.89;100238.66;695494;28;1653;-55
2021/07/13 00:28:05;;;;;;;6.97;6.00;;;;;;;18.81;83.08;100240.38;694687;28;1287;-52
2021/07/13 00:28:25;;;;;;;7.57;6.30;;;;;;;18.79;83.32;100234.28;695214;28;2294;-53
2021/07/13 00:28:46;;;;;;;7.23;6.17;;;;;;;18.80;83.87;100241.31;695966;28;1482;-52
2021/07/13 00:29:06;;;;;;;7.33;6.17;;;;;;;18.79;84.22;100239.59;695523;28;1403;-52
2021/07/13 00:29:29;;;;;;;8.30;6.20;;;;;;;18.78;83.76;100241.38;695867;28;1240;-53
2021/07/13 00:29:49;;;;;;;7.10;6.40;;;;;;;18.79;83.15;100244.88;694782;28;4319;-55
2021/07/13 00:30:12;;;;;;;7.00;6.30;;;;;;;18.81;82.32;100246.53;694521;28;1458;-55
2021/07/13 00:30:33;;;;;;;6.68;5.70;;;;;;;18.85;82.28;100244.63;694739;28;4153;-54
2021/07/13 00:30:53;;;;;;;8.20;5.60;;;;;;;18.84;83.42;100242.88;695516;28;4616;-52
2021/07/13 00:31:13;;;;;;;8.00;6.00;;;;;;;18.84;82.25;100245.53;695165;28;1890;-53
2021/07/13 00:31:34;;;;;;;7.25;6.05;;;;;;;18.88;81.66;100242.72;694842;28;1648;-53
2021/07/13 00:31:55;;;;;;;8.13;6.47;;;;;;;18.88;83.47;100247.16;695282;28;1972;-53
2021/07/13 00:32:15;;;;;;;8.07;6.38;;;;;;;18.85;83.86;100250.75;693147;28;1522;-51
2021/07/13 00:32:35;;;;;;;7.23;6.03;;;;;;;18.88;81.89;100248.03;692636;28;1757;-54
2021/07/13 00:32:56;;;;;;;7.53;6.10;;;;;;;18.93;82.24;100255.75;693517;28;4525;-55
2021/07/13 00:33:16;;;;;;;8.70;6.17;;;;;;;18.89;83.25;100251.53;694947;28;1596;-51
2021/07/13 00:33:37;;;;;;;7.32;6.28;;;;;;;18.86;82.60;100251.63;695691;28;1909;-54
2021/07/13 00:33:58;;;;;;;6.90;6.20;;;;;;;18.85;83.18;100252.56;695296;28;1305;-52
2021/07/13 00:34:18;;;;;;;7.53;6.30;;;;;;;18.85;82.43;100244.63;694768;28;1446;-52
2021/07/13 00:34:39;;;;;;;7.03;5.88;;;;;;;18.89;81.26;100251.53;695369;28;1005;-56
2021/07/13 00:34:59;;;;;;;6.57;5.87;;;;;;;18.90;82.87;100250.59;694879;28;4248;-56
2021/07/13 00:35:19;;;;;;;7.07;6.10;;;;;;;18.89;83.08;100257.66;695023;28;4083;-52
2021/07/13 00:35:40;;;;;;;7.43;6.20;;;;;;;18.89;81.96;100254.16;695250;28;1743;-53
2021/07/13 00:36:00;;;;;;;7.50;5.90;;;;;;;18.89;82.47;100259.47;694735;28;4481;-53
2021/07/13 00:36:23;;;;;;;7.65;6.30;;;;;;;18.92;81.82;100263.78;694865;28;1661;-52
2021/07/13 00:36:44;;;;;;;6.63;5.95;;;;;;;18.92;81.86;100259.31;694325;28;2026;-55
2021/07/13 00:37:04;;;;;;;6.60;5.90;;;;;;;18.92;81.87;100254.03;694938;28;1867;-55
2021/07/13 00:37:25;;;;;;;7.00;6.25;;;;;;;18.89;83.35;100262.13;695437;28;1938;-56
2021/07/13 00:37:46;;;;;;;7.50;6.17;;;;;;;18.87;83.61;100256.91;696105;28;883;-52
2021/07/13 00:38:06;;;;;;;7.53;6.10;;;;;;;18.85;82.90;100260.50;694496;28;1513;-55
2021/07/13 00:38:27;;;;;;;7.10;6.40;;;;;;;18.83;83.17;100260.56;695405;28;1627;-53
2021/07/13 00:38:47;;;;;;;6.85;6.15;;;;;;;18.82;82.69;100266.78;695430;28;1283;-51
2021/07/13 00:39:07;;;;;;;7.33;5.93;;;;;;;18.82;83.45;100256.19;695315;28;4551;-54
2021/07/13 00:39:28;;;;;;;8.67;6.20;;;;;;;18.81;82.74;100265.06;692681;28;4090;-54
2021/07/13 00:39:48;;;;;;;7.97;6.25;;;;;;;18.78;82.99;100261.72;692137;28;4707;-53
2021/07/13 00:40:11;;;;;;;7.20;6.27;;;;;;;18.78;82.58;100267.00;692684;28;1903;-55
2021/07/13 00:40:31;;;;;;;7.38;6.10;;;;;;;18.79;82.68;100258.13;695216;28;1944;-55
2021/07/13 00:40:52;;;;;;;8.20;6.20;;;;;;;18.78;83.51;100261.72;695179;28;1723;-54
2021/07/13 00:41:13;;;;;;;7.07;6.28;;;;;;;18.79;82.12;100263.41;695378;28;1877;-56
2021/07/13 00:41:35;;;;;;;7.03;6.20;;;;;;;18.80;82.76;100266.03;695619;28;1792;-52
2021/07/13 00:41:55;;;;;;;7.53;6.72;;;;;;;18.77;83.19;100262.63;694589;28;4414;-53
2021/07/13 00:42:16;;;;;;;7.07;6.37;;;;;;;18.74;83.15;100260.13;695559;28;1298;-54
2021/07/13 00:42:37;;;;;;;12.27;5.90;;;;;;;18.73;82.48;100264.56;695580;28;1084;-57
2021/07/13 00:42:57;;;;;;;8.83;5.77;;;;;;;18.79;81.81;100272.25;695833;28;1381;-55
2021/07/13 00:43:18;;;;;;;6.70;6.00;;;;;;;18.81;82.63;100266.88;695697;28;1744;-55
2021/07/13 00:43:38;;;;;;;7.53;6.20;;;;;;;18.81;82.50;100272.16;695108;28;1407;-53
2021/07/13 00:43:59;;;;;;;7.63;6.30;;;;;;;18.82;81.54;100268.59;695058;28;4276;-54
2021/07/13 00:44:20;;;;;;;6.95;5.97;;;;;;;18.81;82.59;100262.41;694962;28;4893;-54
2021/07/13 00:44:42;;;;;;;7.60;6.00;;;;;;;18.79;83.29;100268.72;695352;28;2003;-56
2021/07/13 00:45:04;;;;;;;8.15;6.50;;;;;;;18.74;83.41;100266.28;694318;28;4314;-51
2021/07/13 00:45:25;;;;;;;8.07;6.55;;;;;;;18.77;83.06;100267.94;694941;28;1691;-54
2021/07/13 00:45:45;;;;;;;7.63;6.67;;;;;;;18.75;82.91;100269.78;695391;28;1453;-57
2021/07/13 00:46:05;;;;;;;7.67;6.87;;;;;;;18.72;82.55;100263.72;695347;28;1546;-57
2021/07/13 00:46:26;;;;;;;7.80;6.45;;;;;;;18.70;83.20;100268.19;695505;28;1550;-54
2021/07/13 00:46:48;;;;;;;7.85;6.50;;;;;;;18.70;83.10;100270.84;695383;28;1645;-55
2021/07/13 00:47:10;;;;;;;7.40;6.43;;;;;;;18.67;83.41;100273.63;695857;28;1924;-54
2021/07/13 00:47:31;;;;;;;7.03;6.13;;;;;;;18.68;82.50;100266.56;695453;28;1254;-52
2021/07/13 00:47:53;;;;;;;7.57;5.80;;;;;;;18.71;82.61;100261.97;694953;28;4521;-56
2021/07/13 00:48:14;;;;;;;6.82;5.95;;;;;;;18.70;83.86;100268.19;694480;28;1578;-55
2021/07/13 00:48:34;;;;;;;7.05;6.15;;;;;;;18.69;82.88;100258.56;694563;28;4692;-56
2021/07/13 00:48:55;;;;;;;7.37;6.37;;;;;;;18.65;83.71;100264.03;694521;28;2031;-54
2021/07/13 00:49:17;;;;;;;7.53;6.60;;;;;;;18.61;84.43;100259.81;694919;28;1779;-53
2021/07/13 00:49:38;;;;;;;7.65;6.85;;;;;;;18.58;83.97;100255.53;695090;28;1599;-54
2021/07/13 00:50:00;;;;;;;6.88;6.15;;;;;;;18.62;83.80;100266.81;695317;28;1687;-54
2021/07/13 00:50:22;;;;;;;6.88;6.18;;;;;;;18.60;83.90;100253.66;694665;28;1927;-52
2021/07/13 00:50:44;;;;;;;6.88;6.15;;;;;;;18.58;84.00;100258.19;694790;28;1596;-52
2021/07/13 00:51:05;;;;;;;7.47;6.25;;;;;;;18.57;83.62;100253.81;694609;28;4403;-56
2021/07/13 00:51:27;;;;;;;7.32;6.20;;;;;;;18.55;83.91;100250.34;695761;28;1544;-54
2021/07/13 00:51:47;;;;;;;7.40;6.15;;;;;;;18.54;83.94;100253.94;695303;28;1594;-53
2021/07/13 00:52:08;;;;;;;7.83;6.53;;;;;;;18.51;84.06;100254.06;695408;28;1539;-52
2021/07/13 00:52:28;;;;;;;8.18;6.75;;;;;;;18.50;84.12;100253.22;693902;28;1500;-56
2021/07/13 00:52:49;;;;;;;9.07;6.60;;;;;;;18.50;84.44;100258.50;695545;28;4000;-56
2021/07/13 00:53:10;;;;;;;7.25;6.28;;;;;;;18.49;84.56;100253.28;694739;28;4338;-54
2021/07/13 00:53:31;;;;;;;6.90;6.22;;;;;;;18.47;83.85;100261.31;694371;28;1913;-56
2021/07/13 00:53:54;;;;;;;6.85;6.15;;;;;;;18.47;83.99;100260.41;694520;28;4568;-56
2021/07/13 00:54:16;;;;;;;8.20;6.90;;;;;;;18.45;83.53;100259.66;695383;28;1468;-53
2021/07/13 00:54:39;;;;;;;7.43;6.63;;;;;;;18.44;83.38;100258.78;694951;28;1925;-52
2021/07/13 00:55:00;;;;;;;7.30;6.60;;;;;;;18.42;83.53;100251.84;695227;28;1618;-56
2021/07/13 00:55:21;;;;;;;7.28;6.57;;;;;;;18.43;83.18;100251.78;695601;28;1574;-56
2021/07/13 00:55:41;;;;;;;7.90;6.40;;;;;;;18.46;82.83;100249.00;695953;28;1694;-56
2021/07/13 00:56:02;;;;;;;8.18;7.00;;;;;;;18.49;83.44;100250.66;694404;28;1361;-52
2021/07/13 00:56:22;;;;;;;8.50;6.73;;;;;;;18.50;83.97;100253.22;694385;28;1616;-55
2021/07/13 00:56:43;;;;;;;9.63;6.43;;;;;;;18.52;83.22;100250.50;694914;28;1494;-53
2021/07/13 00:57:09;;;;;;;8.00;5.97;;;;;;;18.57;83.47;100255.56;694960;28;4328;-56
2021/07/13 00:57:29;;;;;;;8.35;6.78;;;;;;;18.56;83.54;100244.13;695504;28;4190;-51
2021/07/13 00:57:50;;;;;;;7.78;6.97;;;;;;;18.54;83.55;100256.59;694670;28;2182;-53
2021/07/13 00:58:10;;;;;;;8.30;7.07;;;;;;;18.53;83.61;100253.06;694949;28;2147;-54
2021/07/13 00:58:30;;;;;;;7.57;6.57;;;;;;;18.55;83.18;100253.00;695392;28;1628;-53
2021/07/13 00:58:51;;;;;;;8.00;6.23;;;;;;;18.57;83.16;100256.47;694915;28;1614;-54
2021/07/13 00:59:11;;;;;;;7.83;6.50;;;;;;;18.55;83.80;100255.66;694671;28;1592;-52
2021/07/13 00:59:31;;;;;;;8.20;6.75;;;;;;;18.53;83.84;100247.78;695516;28;1837;-57
2021/07/13 00:59:52;;;;;;;7.20;6.50;;;;;;;18.52;83.41;100251.34;694359;28;4457;-56
2021/07/13 01:00:18;;;;;;;7.10;6.40;;;;;;;18.53;83.76;100258.38;695261;28;1734;-54
2021/07/13 01:00:38;;;;;;;7.35;6.28;;;;;;;18.51;84.26;100256.72;695220;28;1517;-54
2021/07/13 01:00:59;;;;;;;7.80;6.40;;;;;;;18.47;84.37;100256.00;697573;28;1269;-55
2021/07/13 01:01:19;;;;;;;8.00;6.27;;;;;;;18.48;83.52;100255.06;698040;28;1453;-53
2021/07/13 01:01:39;;;;;;;7.13;6.13;;;;;;;18.54;83.95;100256.59;697165;28;3661;-52
2021/07/13 01:02:00;;;;;;;7.23;6.53;;;;;;;18.57;83.53;100253.81;696992;28;4675;-54
2021/07/13 01:02:20;;;;;;;7.40;6.60;;;;;;;18.51;84.42;100248.78;697303;28;1865;-53
2021/07/13 01:02:42;;;;;;;8.63;6.90;;;;;;;18.47;84.64;100257.78;697234;28;1439;-66
2021/07/13 01:03:05;;;;;;;10.10;7.18;;;;;;;18.48;84.24;100256.84;693285;28;4332;-53
2021/07/13 01:03:26;;;;;;;8.95;6.90;;;;;;;18.47;84.74;100253.38;694694;28;1476;-52
2021/07/13 01:03:46;;;;;;;8.73;7.13;;;;;;;18.46;84.18;100251.63;694372;28;1528;-53
2021/07/13 01:04:08;;;;;;;8.33;6.77;;;;;;;18.50;83.82;100247.91;695081;28;1553;-51
2021/07/13 01:04:30;;;;;;;7.53;6.72;;;;;;;18.50;84.45;100244.44;695809;28;1445;-51
2021/07/13 01:04:58;;;;;;;8.18;7.28;;;;;;;18.47;84.82;100247.19;694766;28;1449;-56
2021/07/13 01:05:22;;;;;;;7.93;7.13;;;;;;;18.46;84.94;100254.28;694783;28;1510;-53
2021/07/13 01:05:48;;;;;;;8.63;7.70;;;;;;;18.41;85.27;100244.81;695417;28;1453;-52
2021/07/13 01:06:12;;;;;;;9.98;8.18;;;;;;;18.42;84.95;100250.03;693535;28;4778;-56
2021/07/13 01:06:43;;;;;;;9.25;8.00;;;;;;;18.43;84.71;100253.53;694434;28;1622;-52
2021/07/13 01:07:21;;;;;;;9.93;8.18;;;;;;;18.40;85.43;100243.09;694358;28;1405;-55
2021/07/13 01:08:09;;;;;;;9.32;7.80;;;;;;;18.44;85.55;100244.69;694760;28;1343;-52
2021/07/13 01:09:01;;;;;;;8.25;7.45;;;;;;;18.51;85.29;100243.47;695646;28;1324;-56
2021/07/13 01:09:43;;;;;;;10.00;8.43;;;;;;;18.45;84.97;100239.31;692647;28;5072;-52
2021/07/13 01:10:13;;;;;;;9.75;8.50;;;;;;;18.42;85.62;100244.75;695421;28;1060;-54
2021/07/13 01:10:47;;;;;;;10.02;8.73;;;;;;;18.41;85.57;100236.88;694665;28;4405;-52
2021/07/13 01:11:15;;;;;;;10.00;8.60;;;;;;;18.36;86.02;100240.59;695141;28;1665;-54
2021/07/13 01:12:01;;;;;;;11.63;8.70;;;;;;;18.38;86.16;100241.38;695148;28;1933;-51
2021/07/13 01:12:45;;;;;;;9.98;8.73;;;;;;;18.41;85.24;100240.38;694709;28;4941;-53
2021/07/13 01:13:32;;;;;;;10.55;8.63;;;;;;;18.43;85.50;100245.59;694726;28;2813;-54
2021/07/13 01:14:13;;;;;;;10.30;9.30;;;;;;;18.36;85.60;100245.88;695295;28;1611;-55
2021/07/13 01:15:03;;;;;;;10.23;9.18;;;;;;;18.33;86.13;100240.75;695947;28;1537;-52
2021/07/13 01:15:25;;;;;;;10.25;9.00;;;;;;;18.34;85.93;100242.44;693455;28;4775;-54
2021/07/13 01:15:52;;;;;;;10.75;9.10;;;;;;;18.36;86.18;100243.25;694733;28;1516;-52
2021/07/13 01:16:20;;;;;;;10.70;9.60;;;;;;;18.32;86.10;100244.31;694759;28;1568;-52
2021/07/13 01:16:56;;;;;;;10.13;9.15;;;;;;;18.30;86.35;100243.50;694649;28;1481;-53
2021/07/13 01:17:23;;;;;;;10.15;9.00;;;;;;;18.34;85.09;100244.22;693673;28;1154;-55
2021/07/13 01:18:25;;;;;;;11.82;9.27;;;;;;;18.28;86.53;100242.72;697031;28;1155;-55
2021/07/13 01:18:58;;;;;;;11.15;9.82;;;;;;;18.24;86.89;100246.41;693353;28;4947;-54
2021/07/13 01:19:47;;;;;;;12.15;10.00;;;;;;;18.27;86.71;100248.06;695135;28;1697;-54
2021/07/13 01:20:32;;;;;;;11.15;9.63;;;;;;;18.27;86.13;100248.06;695173;28;1513;-54
2021/07/13 01:21:06;;;;;;;11.38;10.27;;;;;;;18.41;86.00;100244.81;695327;28;1403;-55
2021/07/13 01:21:38;;;;;;;11.57;9.73;;;;;;;18.36;85.66;100240.59;695251;28;1825;-52
2021/07/13 01:22:20;;;;;;;10.25;9.25;;;;;;;18.34;86.10;100237.16;695623;28;1415;-53
2021/07/13 01:22:49;;;;;;;10.82;9.77;;;;;;;18.31;86.21;100242.56;695206;28;4518;-53
2021/07/13 01:23:39;;;;;;;11.48;10.35;;;;;;;18.31;86.47;100241.72;695339;28;1611;-55
2021/07/13 01:24:37;;;;;;;10.70;9.60;;;;;;;18.29;85.60;100246.22;694374;28;4374;-56
2021/07/13 01:25:14;;;;;;;11.93;10.52;;;;;;;18.21;86.57;100241.28;694556;28;1595;-56
2021/07/13 01:25:46;;;;;;;12.20;9.85;;;;;;;18.37;86.65;100239.69;695262;28;1583;-53
2021/07/13 01:26:22;;;;;;;11.02;9.93;;;;;;;18.41;85.85;100243.03;695422;28;1331;-53
2021/07/13 01:26:42;;;;;;;10.52;9.45;;;;;;;18.38;86.33;100248.47;695316;28;1636;-53
2021/07/13 01:27:20;;;;;;;10.80;9.70;;;;;;;18.38;85.22;100241.38;694498;28;4434;-54
2021/07/13 01:27:47;;;;;;;11.10;9.97;;;;;;;18.36;85.23;100240.59;694188;28;2003;-55
2021/07/13 01:28:20;;;;;;;11.27;10.05;;;;;;;18.32;86.59;100246.09;694973;28;1486;-53
2021/07/13 01:28:47;;;;;;;11.15;9.88;;;;;;;18.27;86.26;100235.69;695629;28;2080;-54
2021/07/13 01:29:14;;;;;;;11.35;9.90;;;;;;;18.34;85.79;100244.22;695412;28;1470;-54
2021/07/13 01:29:37;;;;;;;11.50;10.40;;;;;;;18.31;86.22;100242.56;694500;28;1186;-54
2021/07/13 01:30:01;;;;;;;12.18;10.98;;;;;;;18.28;86.10;100237.44;693067;28;4394;-53
2021/07/13 01:30:37;;;;;;;12.55;11.40;;;;;;;18.34;84.45;100242.44;695622;28;1440;-55
2021/07/13 01:31:01;;;;;;;12.70;11.40;;;;;;;18.32;85.50;100240.81;695208;28;1324;-54
2021/07/13 01:31:24;;;;;;;12.57;11.38;;;;;;;18.31;85.80;100239.09;694923;28;4473;-51
2021/07/13 01:31:47;;;;;;;13.05;11.27;;;;;;;18.30;85.92;100238.19;694414;28;1714;-55
2021/07/13 01:32:14;;;;;;;12.10;10.68;;;;;;;18.33;85.05;100239.84;695150;28;1700;-56
2021/07/13 01:32:36;;;;;;;12.75;11.50;;;;;;;18.31;86.10;100247.03;695243;28;2156;-56
2021/07/13 01:33:05;;;;;;;13.60;12.15;;;;;;;18.30;86.08;100240.84;694238;28;4614;-55
2021/07/13 01:33:28;;;;;;;13.25;11.88;;;;;;;18.33;85.03;100245.16;694984;28;1918;-54
2021/07/13 01:33:52;;;;;;;13.45;11.40;;;;;;;18.32;86.02;100239.00;695843;28;1312;-52
2021/07/13 01:34:24;;;;;;;13.20;11.77;;;;;;;18.29;86.29;100239.16;695351;28;1463;-55
2021/07/13 01:34:52;;;;;;;13.93;12.43;;;;;;;18.29;86.06;100244.44;696538;28;1438;-52
2021/07/13 01:35:16;;;;;;;15.23;13.63;;;;;;;18.26;85.56;100243.72;695672;28;1853;-52
2021/07/13 01:36:04;;;;;;;14.02;12.52;;;;;;;18.26;85.89;100241.06;695130;28;4209;-56
2021/07/13 01:36:31;;;;;;;13.80;12.48;;;;;;;18.30;85.23;100240.84;683812;28;4787;-56
2021/07/13 01:37:00;;;;;;;14.52;13.02;;;;;;;18.29;85.70;100240.91;695010;28;1683;-53
2021/07/13 01:37:21;;;;;;;15.32;13.07;;;;;;;18.29;85.35;100239.16;695365;28;1467;-55
2021/07/13 01:37:46;;;;;;;14.15;11.88;;;;;;;18.33;84.58;100237.22;695207;28;1436;-54
2021/07/13 01:38:09;;;;;;;13.13;11.75;;;;;;;18.36;84.08;100243.25;695179;28;1430;-53
2021/07/13 01:38:39;;;;;;;13.70;12.40;;;;;;;18.41;83.66;100236.88;695269;28;1679;-55
2021/07/13 01:39:01;;;;;;;14.18;12.77;;;;;;;18.43;85.30;100243.84;695515;28;4451;-55
2021/07/13 01:39:23;;;;;;;14.52;13.02;;;;;;;18.35;85.56;100238.88;695706;28;1358;-53
2021/07/13 01:39:44;;;;;;;14.55;13.13;;;;;;;18.35;84.82;100241.50;695899;28;980;-52
2021/07/13 01:40:08;;;;;;;14.32;12.93;;;;;;;18.32;85.63;100235.53;695266;28;4137;-52
2021/07/13 01:40:30;;;;;;;14.50;13.10;;;;;;;18.29;85.91;100232.97;693909;28;3977;-52
2021/07/13 01:40:56;;;;;;;14.63;13.10;;;;;;;18.23;86.09;100231.47;695282;28;1822;-55
2021/07/13 01:41:24;;;;;;;14.65;13.15;;;;;;;18.25;86.39;100239.34;695675;28;1732;-53
2021/07/13 01:41:49;;;;;;;14.52;13.02;;;;;;;18.26;85.88;100227.84;695831;28;1662;-56
2021/07/13 01:42:11;;;;;;;14.57;13.07;;;;;;;18.21;85.98;100235.97;692444;28;5042;-55
2021/07/13 01:42:33;;;;;;;15.15;13.65;;;;;;;18.18;85.86;100234.31;695178;28;1724;-56
2021/07/13 01:42:56;;;;;;;14.40;12.90;;;;;;;18.16;86.32;100233.50;695673;28;1005;-55
2021/07/13 01:43:18;;;;;;;15.50;13.10;;;;;;;18.14;86.09;100231.88;695410;28;1703;-56
2021/07/13 01:43:41;;;;;;;14.88;13.25;;;;;;;18.14;86.10;100232.72;695989;28;1538;-54
2021/07/13 01:44:03;;;;;;;14.57;13.13;;;;;;;18.12;86.36;100229.28;695863;28;1797;-54
2021/07/13 01:44:24;;;;;;;13.80;12.40;;;;;;;18.14;85.80;100229.25;695823;28;1519;-54
2021/07/13 01:44:47;;;;;;;13.90;12.50;;;;;;;18.15;85.54;100226.53;695121;28;4702;-56
2021/07/13 01:45:08;;;;;;;14.60;13.10;;;;;;;18.16;85.76;100232.66;694640;28;4538;-54
2021/07/13 01:45:29;;;;;;;14.45;12.98;;;;;;;18.14;86.38;100223.94;694833;28;1696;-52
2021/07/13 01:45:50;;;;;;;14.30;12.88;;;;;;;18.12;86.54;100228.44;694595;28;1778;-56
2021/07/13 01:46:13;;;;;;;14.43;13.02;;;;;;;18.13;86.25;100227.50;694847;28;1937;-54
2021/07/13 01:46:34;;;;;;;15.32;12.88;;;;;;;18.08;86.19;100225.03;694852;28;1468;-54
2021/07/13 01:46:54;;;;;;;14.10;12.60;;;;;;;18.08;86.15;100225.03;694747;28;1596;-53
2021/07/13 01:47:16;;;;;;;14.93;13.32;;;;;;;18.09;86.31;100225.94;696957;28;1511;-55
2021/07/13 01:47:38;;;;;;;15.25;13.60;;;;;;;18.12;86.10;100223.13;695886;28;1409;-55
2021/07/13 01:47:59;;;;;;;15.05;13.45;;;;;;;18.16;85.90;100222.94;695047;28;4515;-57
2021/07/13 01:48:20;;;;;;;15.48;12.90;;;;;;;18.15;85.52;100223.88;695922;28;1343;-52
2021/07/13 01:48:43;;;;;;;14.00;12.50;;;;;;;18.10;86.20;100217.91;694307;28;1642;-51
2021/07/13 01:49:04;;;;;;;14.13;12.13;;;;;;;18.10;85.39;100223.22;695535;28;4027;-55
2021/07/13 01:49:27;;;;;;;14.98;12.88;;;;;;;18.15;86.15;100223.00;694340;28;1282;-53
2021/07/13 01:49:48;;;;;;;15.38;13.38;;;;;;;18.10;86.25;100228.50;694740;28;1714;-54
2021/07/13 01:50:10;;;;;;;14.43;12.88;;;;;;;18.11;86.19;100222.28;695591;28;1851;-51
2021/07/13 01:50:32;;;;;;;14.40;12.90;;;;;;;18.09;86.42;100220.63;696718;28;1312;-54
2021/07/13 01:50:54;;;;;;;13.90;12.50;;;;;;;18.05;86.13;100219.91;694642;28;4669;-54
2021/07/13 01:51:15;;;;;;;13.43;12.02;;;;;;;18.08;85.67;100222.41;695839;28;1735;-53
2021/07/13 01:51:36;;;;;;;13.10;11.80;;;;;;;18.11;85.26;100226.69;695791;28;1791;-54
2021/07/13 01:51:58;;;;;;;14.07;12.27;;;;;;;18.26;84.99;100222.53;693728;28;3944;-53
2021/07/13 01:52:19;;;;;;;13.50;11.95;;;;;;;18.21;85.69;100225.41;694502;28;4490;-54
2021/07/13 01:52:40;;;;;;;14.10;12.50;;;;;;;18.17;85.57;100226.47;694976;28;1805;-54